sensor_id;sensor_type;location;lat;lon;timestamp;temperature;humidity
12704;DHT22;6416;52.182;7.650;2023-06-14T00:00:34;22.60;33.00
12704;DHT22;6416;52.182;7.650;2023-06-14T00:03:00;22.50;32.90
12704;DHT22;6416;52.182;7.650;2023-06-14T00:05:25;22.50;33.00
12704;DHT22;6416;52.182;7.650;2023-06-14T00:07:50;22.40;33.10
12704;DHT22;6416;52.182;7.650;2023-06-14T00:10:16;22.40;33.20
12704;DHT22;6416;52.182;7.650;2023-06-14T00:12:41;22.30;33.20
12704;DHT22;6416;52.182;7.650;2023-06-14T00:15:07;22.30;33.30
12704;DHT22;6416;52.182;7.650;2023-06-14T00:17:33;22.20;33.30
12704;DHT22;6416;52.182;7.650;2023-06-14T00:19:59;22.20;33.40
12704;DHT22;6416;52.182;7.650;2023-06-14T00:22:25;22.20;33.50
12704;DHT22;6416;52.182;7.650;2023-06-14T00:24:51;22.10;33.60
12704;DHT22;6416;52.182;7.650;2023-06-14T00:27:17;22.10;33.70
12704;DHT22;6416;52.182;7.650;2023-06-14T00:29:42;22.10;33.70
12704;DHT22;6416;52.182;7.650;2023-06-14T00:32:08;22.00;33.70
12704;DHT22;6416;52.182;7.650;2023-06-14T00:34:34;22.00;33.80
12704;DHT22;6416;52.182;7.650;2023-06-14T00:36:59;22.00;33.90
12704;DHT22;6416;52.182;7.650;2023-06-14T00:39:25;21.90;34.10
12704;DHT22;6416;52.182;7.650;2023-06-14T00:41:50;21.90;34.10
12704;DHT22;6416;52.182;7.650;2023-06-14T00:44:17;21.80;34.20
12704;DHT22;6416;52.182;7.650;2023-06-14T00:46:42;21.80;34.20
12704;DHT22;6416;52.182;7.650;2023-06-14T00:49:08;21.80;34.30
12704;DHT22;6416;52.182;7.650;2023-06-14T00:51:34;21.70;34.30
12704;DHT22;6416;52.182;7.650;2023-06-14T00:54:00;21.70;34.40
12704;DHT22;6416;52.182;7.650;2023-06-14T00:56:26;21.70;34.50
12704;DHT22;6416;52.182;7.650;2023-06-14T00:58:52;21.60;34.60
12704;DHT22;6416;52.182;7.650;2023-06-14T01:01:17;21.60;34.60
12704;DHT22;6416;52.182;7.650;2023-06-14T01:03:43;21.50;34.70
12704;DHT22;6416;52.182;7.650;2023-06-14T01:06:27;21.50;34.80
12704;DHT22;6416;52.182;7.650;2023-06-14T01:11:35;21.40;34.90
12704;DHT22;6416;52.182;7.650;2023-06-14T01:14:03;21.40;35.60
12704;DHT22;6416;52.182;7.650;2023-06-14T01:16:29;21.40;35.20
12704;DHT22;6416;52.182;7.650;2023-06-14T01:18:55;21.40;35.20
12704;DHT22;6416;52.182;7.650;2023-06-14T01:21:22;21.30;35.30
12704;DHT22;6416;52.182;7.650;2023-06-14T01:23:48;21.20;35.30
12704;DHT22;6416;52.182;7.650;2023-06-14T01:26:13;21.20;35.50
12704;DHT22;6416;52.182;7.650;2023-06-14T01:28:39;21.20;35.60
12704;DHT22;6416;52.182;7.650;2023-06-14T01:31:06;21.10;35.60
12704;DHT22;6416;52.182;7.650;2023-06-14T01:33:33;21.10;35.70
12704;DHT22;6416;52.182;7.650;2023-06-14T01:36:01;21.10;35.90
12704;DHT22;6416;52.182;7.650;2023-06-14T01:38:27;21.00;36.00
12704;DHT22;6416;52.182;7.650;2023-06-14T01:40:55;21.00;35.90
12704;DHT22;6416;52.182;7.650;2023-06-14T01:43:22;21.00;36.10
12704;DHT22;6416;52.182;7.650;2023-06-14T01:45:50;20.90;36.00
12704;DHT22;6416;52.182;7.650;2023-06-14T01:48:17;20.80;36.20
12704;DHT22;6416;52.182;7.650;2023-06-14T01:50:42;20.80;36.30
12704;DHT22;6416;52.182;7.650;2023-06-14T01:53:08;20.80;36.30
12704;DHT22;6416;52.182;7.650;2023-06-14T01:55:34;20.70;36.60
12704;DHT22;6416;52.182;7.650;2023-06-14T01:58:00;20.70;36.60
12704;DHT22;6416;52.182;7.650;2023-06-14T02:00:26;20.70;36.80
12704;DHT22;6416;52.182;7.650;2023-06-14T02:02:51;20.60;36.80
12704;DHT22;6416;52.182;7.650;2023-06-14T02:05:17;20.60;36.90
12704;DHT22;6416;52.182;7.650;2023-06-14T02:07:42;20.50;36.90
12704;DHT22;6416;52.182;7.650;2023-06-14T02:10:08;20.50;37.00
12704;DHT22;6416;52.182;7.650;2023-06-14T02:12:33;20.40;37.00
12704;DHT22;6416;52.182;7.650;2023-06-14T02:14:58;20.40;37.20
12704;DHT22;6416;52.182;7.650;2023-06-14T02:17:24;20.40;37.30
12704;DHT22;6416;52.182;7.650;2023-06-14T02:19:49;20.30;37.30
12704;DHT22;6416;52.182;7.650;2023-06-14T02:22:15;20.30;37.40
12704;DHT22;6416;52.182;7.650;2023-06-14T02:24:41;20.20;37.30
12704;DHT22;6416;52.182;7.650;2023-06-14T02:27:07;20.20;37.50
12704;DHT22;6416;52.182;7.650;2023-06-14T02:29:32;20.20;37.70
12704;DHT22;6416;52.182;7.650;2023-06-14T02:31:58;20.10;37.50
12704;DHT22;6416;52.182;7.650;2023-06-14T02:34:23;20.10;37.60
12704;DHT22;6416;52.182;7.650;2023-06-14T02:36:49;20.00;37.60
12704;DHT22;6416;52.182;7.650;2023-06-14T02:39:14;20.00;38.50
12704;DHT22;6416;52.182;7.650;2023-06-14T02:41:40;20.00;37.90
12704;DHT22;6416;52.182;7.650;2023-06-14T02:44:07;19.60;40.90
12704;DHT22;6416;52.182;7.650;2023-06-14T02:46:32;19.70;39.70
12704;DHT22;6416;52.182;7.650;2023-06-14T02:48:58;19.70;39.20
12704;DHT22;6416;52.182;7.650;2023-06-14T02:51:24;19.70;39.10
12704;DHT22;6416;52.182;7.650;2023-06-14T02:53:49;19.70;39.00
12704;DHT22;6416;52.182;7.650;2023-06-14T02:56:15;19.70;39.00
12704;DHT22;6416;52.182;7.650;2023-06-14T02:58:40;19.70;39.00
12704;DHT22;6416;52.182;7.650;2023-06-14T03:01:06;19.70;39.00
12704;DHT22;6416;52.182;7.650;2023-06-14T03:03:31;19.60;38.90
12704;DHT22;6416;52.182;7.650;2023-06-14T03:05:57;19.60;39.10
12704;DHT22;6416;52.182;7.650;2023-06-14T03:08:23;19.60;39.20
12704;DHT22;6416;52.182;7.650;2023-06-14T03:10:49;19.50;39.30
12704;DHT22;6416;52.182;7.650;2023-06-14T03:13:15;19.50;39.20
12704;DHT22;6416;52.182;7.650;2023-06-14T03:15:43;19.40;39.40
12704;DHT22;6416;52.182;7.650;2023-06-14T03:18:09;19.40;39.50
12704;DHT22;6416;52.182;7.650;2023-06-14T03:20:35;19.40;39.60
12704;DHT22;6416;52.182;7.650;2023-06-14T03:23:01;19.30;39.60
12704;DHT22;6416;52.182;7.650;2023-06-14T03:25:27;19.30;39.80
12704;DHT22;6416;52.182;7.650;2023-06-14T03:27:52;19.20;39.80
12704;DHT22;6416;52.182;7.650;2023-06-14T03:30:18;19.20;39.80
12704;DHT22;6416;52.182;7.650;2023-06-14T03:32:43;19.20;39.80
12704;DHT22;6416;52.182;7.650;2023-06-14T03:35:09;19.10;39.80
12704;DHT22;6416;52.182;7.650;2023-06-14T03:37:34;19.10;40.00
12704;DHT22;6416;52.182;7.650;2023-06-14T03:40:00;19.10;40.10
12704;DHT22;6416;52.182;7.650;2023-06-14T03:42:25;19.10;40.20
12704;DHT22;6416;52.182;7.650;2023-06-14T03:44:53;19.10;40.30
12704;DHT22;6416;52.182;7.650;2023-06-14T03:47:19;19.00;40.70
12704;DHT22;6416;52.182;7.650;2023-06-14T03:49:44;19.00;40.60
12704;DHT22;6416;52.182;7.650;2023-06-14T03:52:10;19.00;40.80
12704;DHT22;6416;52.182;7.650;2023-06-14T03:54:35;19.00;40.90
12704;DHT22;6416;52.182;7.650;2023-06-14T03:57:01;19.00;41.80
12704;DHT22;6416;52.182;7.650;2023-06-14T03:59:27;19.00;41.30
12704;DHT22;6416;52.182;7.650;2023-06-14T04:01:54;19.00;41.40
12704;DHT22;6416;52.182;7.650;2023-06-14T04:04:20;19.00;41.40
12704;DHT22;6416;52.182;7.650;2023-06-14T04:06:45;19.00;41.60
12704;DHT22;6416;52.182;7.650;2023-06-14T04:09:11;19.10;41.70
12704;DHT22;6416;52.182;7.650;2023-06-14T04:11:36;19.10;41.70
12704;DHT22;6416;52.182;7.650;2023-06-14T04:14:02;19.10;41.80
12704;DHT22;6416;52.182;7.650;2023-06-14T04:16:27;19.10;41.80
12704;DHT22;6416;52.182;7.650;2023-06-14T04:18:55;19.20;42.10
12704;DHT22;6416;52.182;7.650;2023-06-14T04:21:20;19.20;42.30
12704;DHT22;6416;52.182;7.650;2023-06-14T04:23:46;19.20;42.80
12704;DHT22;6416;52.182;7.650;2023-06-14T04:26:11;19.30;42.20
12704;DHT22;6416;52.182;7.650;2023-06-14T04:28:37;19.30;42.30
12704;DHT22;6416;52.182;7.650;2023-06-14T04:31:02;19.30;42.20
12704;DHT22;6416;52.182;7.650;2023-06-14T04:33:28;19.40;42.20
12704;DHT22;6416;52.182;7.650;2023-06-14T04:35:53;19.40;42.30
12704;DHT22;6416;52.182;7.650;2023-06-14T04:38:19;19.50;42.40
12704;DHT22;6416;52.182;7.650;2023-06-14T04:40:45;19.60;42.60
12704;DHT22;6416;52.182;7.650;2023-06-14T04:43:10;19.60;42.70
12704;DHT22;6416;52.182;7.650;2023-06-14T04:45:36;19.80;43.00
12704;DHT22;6416;52.182;7.650;2023-06-14T04:48:01;20.00;43.10
12704;DHT22;6416;52.182;7.650;2023-06-14T04:50:27;20.10;43.20
12704;DHT22;6416;52.182;7.650;2023-06-14T04:52:53;20.30;43.20
12704;DHT22;6416;52.182;7.650;2023-06-14T04:55:18;20.60;43.20
12704;DHT22;6416;52.182;7.650;2023-06-14T04:57:44;20.80;43.00
12704;DHT22;6416;52.182;7.650;2023-06-14T05:00:10;21.00;42.80
12704;DHT22;6416;52.182;7.650;2023-06-14T05:02:35;21.30;42.80
12704;DHT22;6416;52.182;7.650;2023-06-14T05:05:01;21.60;42.80
12704;DHT22;6416;52.182;7.650;2023-06-14T05:07:26;21.80;42.60
12704;DHT22;6416;52.182;7.650;2023-06-14T05:09:51;22.00;42.40
12704;DHT22;6416;52.182;7.650;2023-06-14T05:12:17;22.20;42.30
12704;DHT22;6416;52.182;7.650;2023-06-14T05:14:43;22.40;42.10
12704;DHT22;6416;52.182;7.650;2023-06-14T05:17:08;22.70;42.10
12704;DHT22;6416;52.182;7.650;2023-06-14T05:19:33;23.00;42.10
12704;DHT22;6416;52.182;7.650;2023-06-14T05:21:59;23.10;41.70
12704;DHT22;6416;52.182;7.650;2023-06-14T05:24:24;23.30;41.40
12704;DHT22;6416;52.182;7.650;2023-06-14T05:26:50;23.50;41.30
12704;DHT22;6416;52.182;7.650;2023-06-14T05:29:15;23.70;41.10
12704;DHT22;6416;52.182;7.650;2023-06-14T05:31:41;23.90;41.10
12704;DHT22;6416;52.182;7.650;2023-06-14T05:34:06;24.10;41.00
12704;DHT22;6416;52.182;7.650;2023-06-14T05:36:32;24.40;40.80
12704;DHT22;6416;52.182;7.650;2023-06-14T05:38:57;24.50;40.40
12704;DHT22;6416;52.182;7.650;2023-06-14T05:41:25;24.70;40.20
12704;DHT22;6416;52.182;7.650;2023-06-14T05:43:50;24.90;40.40
12704;DHT22;6416;52.182;7.650;2023-06-14T05:46:16;25.10;40.10
12704;DHT22;6416;52.182;7.650;2023-06-14T05:48:41;25.30;39.80
12704;DHT22;6416;52.182;7.650;2023-06-14T05:51:07;25.50;39.50
12704;DHT22;6416;52.182;7.650;2023-06-14T05:53:32;25.60;39.20
12704;DHT22;6416;52.182;7.650;2023-06-14T05:55:58;25.80;39.10
12704;DHT22;6416;52.182;7.650;2023-06-14T05:58:23;26.00;39.10
12704;DHT22;6416;52.182;7.650;2023-06-14T06:00:49;26.20;38.90
12704;DHT22;6416;52.182;7.650;2023-06-14T06:03:14;26.40;38.70
12704;DHT22;6416;52.182;7.650;2023-06-14T06:05:40;26.60;38.70
12704;DHT22;6416;52.182;7.650;2023-06-14T06:08:05;26.70;37.90
12704;DHT22;6416;52.182;7.650;2023-06-14T06:10:31;26.90;38.50
12704;DHT22;6416;52.182;7.650;2023-06-14T06:12:56;27.20;38.30
12704;DHT22;6416;52.182;7.650;2023-06-14T06:15:22;27.50;38.10
12704;DHT22;6416;52.182;7.650;2023-06-14T06:17:47;27.80;37.60
12704;DHT22;6416;52.182;7.650;2023-06-14T06:20:13;28.00;36.60
12704;DHT22;6416;52.182;7.650;2023-06-14T06:22:38;28.10;36.10
12704;DHT22;6416;52.182;7.650;2023-06-14T06:25:04;28.20;35.60
12704;DHT22;6416;52.182;7.650;2023-06-14T06:27:30;28.30;35.10
12704;DHT22;6416;52.182;7.650;2023-06-14T06:29:55;28.40;35.20
12704;DHT22;6416;52.182;7.650;2023-06-14T06:32:21;28.50;35.30
12704;DHT22;6416;52.182;7.650;2023-06-14T06:34:47;28.50;34.90
12704;DHT22;6416;52.182;7.650;2023-06-14T06:37:13;28.60;34.60
12704;DHT22;6416;52.182;7.650;2023-06-14T06:39:39;28.70;34.60
12704;DHT22;6416;52.182;7.650;2023-06-14T06:42:05;28.80;34.80
12704;DHT22;6416;52.182;7.650;2023-06-14T06:44:30;28.90;34.30
12704;DHT22;6416;52.182;7.650;2023-06-14T06:46:57;29.00;34.20
12704;DHT22;6416;52.182;7.650;2023-06-14T06:49:22;29.00;34.10
12704;DHT22;6416;52.182;7.650;2023-06-14T06:52:05;29.10;34.00
12704;DHT22;6416;52.182;7.650;2023-06-14T06:54:31;29.30;33.70
12704;DHT22;6416;52.182;7.650;2023-06-14T06:56:56;29.40;34.00
12704;DHT22;6416;52.182;7.650;2023-06-14T06:59:22;29.70;34.20
12704;DHT22;6416;52.182;7.650;2023-06-14T07:01:47;29.90;34.40
12704;DHT22;6416;52.182;7.650;2023-06-14T07:04:13;30.10;33.90
12704;DHT22;6416;52.182;7.650;2023-06-14T07:06:39;30.50;33.70
12704;DHT22;6416;52.182;7.650;2023-06-14T07:09:04;30.70;33.10
12704;DHT22;6416;52.182;7.650;2023-06-14T07:11:30;30.90;32.80
12704;DHT22;6416;52.182;7.650;2023-06-14T07:13:55;31.10;32.40
12704;DHT22;6416;52.182;7.650;2023-06-14T07:16:21;31.30;32.20
12704;DHT22;6416;52.182;7.650;2023-06-14T07:18:46;31.50;31.70
12704;DHT22;6416;52.182;7.650;2023-06-14T07:21:12;31.60;31.60
12704;DHT22;6416;52.182;7.650;2023-06-14T07:23:37;31.80;31.20
12704;DHT22;6416;52.182;7.650;2023-06-14T07:26:03;31.90;31.50
12704;DHT22;6416;52.182;7.650;2023-06-14T07:28:28;32.00;30.10
12704;DHT22;6416;52.182;7.650;2023-06-14T07:30:54;32.10;30.60
12704;DHT22;6416;52.182;7.650;2023-06-14T07:33:19;32.20;30.30
12704;DHT22;6416;52.182;7.650;2023-06-14T07:35:45;32.20;30.00
12704;DHT22;6416;52.182;7.650;2023-06-14T07:38:10;32.30;30.20
12704;DHT22;6416;52.182;7.650;2023-06-14T07:40:36;32.40;30.00
12704;DHT22;6416;52.182;7.650;2023-06-14T07:43:01;32.50;29.80
12704;DHT22;6416;52.182;7.650;2023-06-14T07:45:26;32.60;29.80
12704;DHT22;6416;52.182;7.650;2023-06-14T07:47:52;32.70;29.80
12704;DHT22;6416;52.182;7.650;2023-06-14T07:50:17;32.90;29.90
12704;DHT22;6416;52.182;7.650;2023-06-14T07:52:44;32.90;29.30
12704;DHT22;6416;52.182;7.650;2023-06-14T07:55:10;33.00;29.10
12704;DHT22;6416;52.182;7.650;2023-06-14T07:57:35;33.10;29.20
12704;DHT22;6416;52.182;7.650;2023-06-14T08:00:01;33.00;28.90
12704;DHT22;6416;52.182;7.650;2023-06-14T08:02:26;33.00;28.90
12704;DHT22;6416;52.182;7.650;2023-06-14T08:04:52;33.00;28.60
12704;DHT22;6416;52.182;7.650;2023-06-14T08:07:17;33.10;28.30
12704;DHT22;6416;52.182;7.650;2023-06-14T08:09:43;33.10;28.10
12704;DHT22;6416;52.182;7.650;2023-06-14T08:12:08;33.20;28.20
12704;DHT22;6416;52.182;7.650;2023-06-14T08:14:34;33.30;28.90
12704;DHT22;6416;52.182;7.650;2023-06-14T08:16:59;33.40;28.20
12704;DHT22;6416;52.182;7.650;2023-06-14T08:19:25;33.60;28.20
12704;DHT22;6416;52.182;7.650;2023-06-14T08:21:51;33.80;28.40
12704;DHT22;6416;52.182;7.650;2023-06-14T08:24:16;34.00;28.50
12704;DHT22;6416;52.182;7.650;2023-06-14T08:26:42;34.20;28.00
12704;DHT22;6416;52.182;7.650;2023-06-14T08:29:07;34.40;27.90
12704;DHT22;6416;52.182;7.650;2023-06-14T08:31:33;34.50;27.70
12704;DHT22;6416;52.182;7.650;2023-06-14T08:33:59;34.60;27.30
12704;DHT22;6416;52.182;7.650;2023-06-14T08:36:24;34.60;27.20
12704;DHT22;6416;52.182;7.650;2023-06-14T08:38:49;34.60;27.20
12704;DHT22;6416;52.182;7.650;2023-06-14T08:41:20;34.70;27.50
12704;DHT22;6416;52.182;7.650;2023-06-14T08:43:47;34.80;27.50
12704;DHT22;6416;52.182;7.650;2023-06-14T08:46:12;35.00;27.40
12704;DHT22;6416;52.182;7.650;2023-06-14T08:48:39;35.20;27.50
12704;DHT22;6416;52.182;7.650;2023-06-14T08:51:05;35.30;27.20
12704;DHT22;6416;52.182;7.650;2023-06-14T08:53:31;35.50;27.20
12704;DHT22;6416;52.182;7.650;2023-06-14T08:55:56;35.70;27.00
12704;DHT22;6416;52.182;7.650;2023-06-14T08:58:23;35.80;26.50
12704;DHT22;6416;52.182;7.650;2023-06-14T09:00:49;35.90;25.80
12704;DHT22;6416;52.182;7.650;2023-06-14T09:03:14;35.90;25.60
12704;DHT22;6416;52.182;7.650;2023-06-14T09:05:40;35.90;25.30
12704;DHT22;6416;52.182;7.650;2023-06-14T09:08:05;35.90;25.80
12704;DHT22;6416;52.182;7.650;2023-06-14T09:10:31;36.00;25.70
12704;DHT22;6416;52.182;7.650;2023-06-14T09:12:57;36.00;25.70
12704;DHT22;6416;52.182;7.650;2023-06-14T09:15:23;36.10;25.60
12704;DHT22;6416;52.182;7.650;2023-06-14T09:17:48;36.20;25.40
12704;DHT22;6416;52.182;7.650;2023-06-14T09:20:13;36.30;25.30
12704;DHT22;6416;52.182;7.650;2023-06-14T09:22:39;36.40;25.20
12704;DHT22;6416;52.182;7.650;2023-06-14T09:25:06;36.50;25.40
12704;DHT22;6416;52.182;7.650;2023-06-14T09:27:32;36.50;24.80
12704;DHT22;6416;52.182;7.650;2023-06-14T09:29:58;36.60;24.80
12704;DHT22;6416;52.182;7.650;2023-06-14T09:32:24;36.60;24.90
12704;DHT22;6416;52.182;7.650;2023-06-14T09:34:50;36.80;25.20
12704;DHT22;6416;52.182;7.650;2023-06-14T09:37:36;36.90;25.30
12704;DHT22;6416;52.182;7.650;2023-06-14T09:40:03;37.10;25.10
12704;DHT22;6416;52.182;7.650;2023-06-14T09:42:29;37.30;24.70
12704;DHT22;6416;52.182;7.650;2023-06-14T09:44:56;37.40;24.40
12704;DHT22;6416;52.182;7.650;2023-06-14T09:47:22;37.50;24.30
12704;DHT22;6416;52.182;7.650;2023-06-14T09:49:51;37.50;24.20
12704;DHT22;6416;52.182;7.650;2023-06-14T09:52:18;37.50;23.90
12704;DHT22;6416;52.182;7.650;2023-06-14T09:54:45;37.50;23.90
12704;DHT22;6416;52.182;7.650;2023-06-14T09:57:11;37.50;23.80
12704;DHT22;6416;52.182;7.650;2023-06-14T09:59:43;37.50;23.80
12704;DHT22;6416;52.182;7.650;2023-06-14T10:02:34;37.50;23.80
12704;DHT22;6416;52.182;7.650;2023-06-14T10:05:04;37.60;23.90
12704;DHT22;6416;52.182;7.650;2023-06-14T10:07:40;37.60;23.90
12704;DHT22;6416;52.182;7.650;2023-06-14T10:10:08;37.70;23.70
12704;DHT22;6416;52.182;7.650;2023-06-14T10:12:33;37.70;23.90
12704;DHT22;6416;52.182;7.650;2023-06-14T10:14:59;37.90;24.00
12704;DHT22;6416;52.182;7.650;2023-06-14T10:22:58;38.30;23.70
12704;DHT22;6416;52.182;7.650;2023-06-14T10:25:29;38.50;23.30
12704;DHT22;6416;52.182;7.650;2023-06-14T10:28:17;38.70;23.60
12704;DHT22;6416;52.182;7.650;2023-06-14T10:31:06;38.90;22.90
12704;DHT22;6416;52.182;7.650;2023-06-14T10:33:33;39.00;23.10
12704;DHT22;6416;52.182;7.650;2023-06-14T10:36:27;39.10;23.20
12704;DHT22;6416;52.182;7.650;2023-06-14T10:39:17;39.20;22.90
12704;DHT22;6416;52.182;7.650;2023-06-14T10:41:52;39.30;23.10
12704;DHT22;6416;52.182;7.650;2023-06-14T10:46:53;39.70;22.90
12704;DHT22;6416;52.182;7.650;2023-06-14T10:49:19;39.70;22.80
12704;DHT22;6416;52.182;7.650;2023-06-14T10:51:57;39.90;22.80
12704;DHT22;6416;52.182;7.650;2023-06-14T10:54:22;39.90;22.20
12704;DHT22;6416;52.182;7.650;2023-06-14T10:56:52;40.00;22.80
12704;DHT22;6416;52.182;7.650;2023-06-14T10:59:19;40.10;22.50
12704;DHT22;6416;52.182;7.650;2023-06-14T11:04:20;40.30;22.50
12704;DHT22;6416;52.182;7.650;2023-06-14T11:06:48;40.40;22.40
12704;DHT22;6416;52.182;7.650;2023-06-14T11:11:56;40.40;22.10
12704;DHT22;6416;52.182;7.650;2023-06-14T11:14:22;40.60;22.10
12704;DHT22;6416;52.182;7.650;2023-06-14T11:16:49;40.60;21.90
12704;DHT22;6416;52.182;7.650;2023-06-14T11:19:14;40.60;21.60
12704;DHT22;6416;52.182;7.650;2023-06-14T11:21:40;40.60;21.70
12704;DHT22;6416;52.182;7.650;2023-06-14T11:24:10;40.60;22.00
12704;DHT22;6416;52.182;7.650;2023-06-14T11:26:38;40.80;21.80
12704;DHT22;6416;52.182;7.650;2023-06-14T11:29:04;40.90;21.80
12704;DHT22;6416;52.182;7.650;2023-06-14T11:31:29;41.00;21.70
12704;DHT22;6416;52.182;7.650;2023-06-14T11:33:56;41.00;21.60
12704;DHT22;6416;52.182;7.650;2023-06-14T11:36:22;41.10;22.10
12704;DHT22;6416;52.182;7.650;2023-06-14T11:38:48;41.10;21.60
12704;DHT22;6416;52.182;7.650;2023-06-14T11:41:13;41.10;21.30
12704;DHT22;6416;52.182;7.650;2023-06-14T11:43:39;41.10;21.00
12704;DHT22;6416;52.182;7.650;2023-06-14T11:46:12;41.20;21.20
12704;DHT22;6416;52.182;7.650;2023-06-14T11:48:40;41.00;21.40
12704;DHT22;6416;52.182;7.650;2023-06-14T11:51:05;41.00;21.30
12704;DHT22;6416;52.182;7.650;2023-06-14T11:53:31;40.90;21.00
12704;DHT22;6416;52.182;7.650;2023-06-14T11:55:57;40.80;21.00
12704;DHT22;6416;52.182;7.650;2023-06-14T11:58:23;40.80;20.90
12704;DHT22;6416;52.182;7.650;2023-06-14T12:00:49;40.80;21.00
12704;DHT22;6416;52.182;7.650;2023-06-14T12:03:14;40.80;21.10
12704;DHT22;6416;52.182;7.650;2023-06-14T12:05:40;40.90;21.20
12704;DHT22;6416;52.182;7.650;2023-06-14T12:08:05;41.00;21.00
12704;DHT22;6416;52.182;7.650;2023-06-14T12:10:39;41.10;20.80
12704;DHT22;6416;52.182;7.650;2023-06-14T12:13:05;41.10;20.60
12704;DHT22;6416;52.182;7.650;2023-06-14T12:15:31;41.10;20.80
12704;DHT22;6416;52.182;7.650;2023-06-14T12:17:57;41.00;20.60
12704;DHT22;6416;52.182;7.650;2023-06-14T12:20:29;40.90;20.40
12704;DHT22;6416;52.182;7.650;2023-06-14T12:22:56;40.90;20.60
12704;DHT22;6416;52.182;7.650;2023-06-14T12:25:32;40.80;20.70
12704;DHT22;6416;52.182;7.650;2023-06-14T12:28:08;40.80;20.90
12704;DHT22;6416;52.182;7.650;2023-06-14T12:30:35;40.90;20.80
12704;DHT22;6416;52.182;7.650;2023-06-14T12:33:01;40.90;20.80
12704;DHT22;6416;52.182;7.650;2023-06-14T12:35:27;40.80;20.50
12704;DHT22;6416;52.182;7.650;2023-06-14T12:37:52;40.70;20.50
12704;DHT22;6416;52.182;7.650;2023-06-14T12:40:18;40.70;20.60
12704;DHT22;6416;52.182;7.650;2023-06-14T12:42:44;40.60;20.80
12704;DHT22;6416;52.182;7.650;2023-06-14T12:45:10;40.60;20.30
12704;DHT22;6416;52.182;7.650;2023-06-14T12:47:36;40.50;19.80
12704;DHT22;6416;52.182;7.650;2023-06-14T12:50:02;40.40;19.80
12704;DHT22;6416;52.182;7.650;2023-06-14T12:52:27;40.20;19.60
12704;DHT22;6416;52.182;7.650;2023-06-14T12:54:53;39.90;19.60
12704;DHT22;6416;52.182;7.650;2023-06-14T12:57:18;39.60;19.60
12704;DHT22;6416;52.182;7.650;2023-06-14T12:59:43;39.00;19.60
12704;DHT22;6416;52.182;7.650;2023-06-14T13:02:13;38.50;19.90
12704;DHT22;6416;52.182;7.650;2023-06-14T13:04:39;37.90;20.40
12704;DHT22;6416;52.182;7.650;2023-06-14T13:07:05;37.30;20.60
12704;DHT22;6416;52.182;7.650;2023-06-14T13:09:30;36.80;20.80
12704;DHT22;6416;52.182;7.650;2023-06-14T13:11:56;36.30;21.30
12704;DHT22;6416;52.182;7.650;2023-06-14T13:14:21;35.90;21.60
12704;DHT22;6416;52.182;7.650;2023-06-14T13:16:47;35.50;21.70
12704;DHT22;6416;52.182;7.650;2023-06-14T13:19:12;35.30;21.90
12704;DHT22;6416;52.182;7.650;2023-06-14T13:21:38;35.00;22.20
12704;DHT22;6416;52.182;7.650;2023-06-14T13:24:03;34.70;22.40
12704;DHT22;6416;52.182;7.650;2023-06-14T13:26:29;34.40;22.50
12704;DHT22;6416;52.182;7.650;2023-06-14T13:28:55;34.20;22.70
12704;DHT22;6416;52.182;7.650;2023-06-14T13:31:20;34.10;23.00
12704;DHT22;6416;52.182;7.650;2023-06-14T13:33:46;34.00;23.50
12704;DHT22;6416;52.182;7.650;2023-06-14T13:36:11;33.90;23.70
12704;DHT22;6416;52.182;7.650;2023-06-14T13:38:37;33.70;23.50
12704;DHT22;6416;52.182;7.650;2023-06-14T13:41:02;33.50;23.50
12704;DHT22;6416;52.182;7.650;2023-06-14T13:43:27;33.40;23.50
12704;DHT22;6416;52.182;7.650;2023-06-14T13:45:54;33.20;23.70
12704;DHT22;6416;52.182;7.650;2023-06-14T13:48:19;33.10;23.90
12704;DHT22;6416;52.182;7.650;2023-06-14T13:50:44;33.00;24.10
12704;DHT22;6416;52.182;7.650;2023-06-14T13:53:10;32.80;24.20
12704;DHT22;6416;52.182;7.650;2023-06-14T13:55:35;32.70;24.10
12704;DHT22;6416;52.182;7.650;2023-06-14T13:58:01;32.60;24.30
12704;DHT22;6416;52.182;7.650;2023-06-14T14:00:26;32.50;24.50
12704;DHT22;6416;52.182;7.650;2023-06-14T14:02:52;32.40;24.60
12704;DHT22;6416;52.182;7.650;2023-06-14T14:05:17;32.30;24.80
12704;DHT22;6416;52.182;7.650;2023-06-14T14:07:43;32.20;24.50
12704;DHT22;6416;52.182;7.650;2023-06-14T14:10:09;32.10;24.60
12704;DHT22;6416;52.182;7.650;2023-06-14T14:12:35;32.00;24.80
12704;DHT22;6416;52.182;7.650;2023-06-14T14:15:00;31.90;25.10
12704;DHT22;6416;52.182;7.650;2023-06-14T14:17:26;31.80;25.00
12704;DHT22;6416;52.182;7.650;2023-06-14T14:19:51;31.60;25.30
12704;DHT22;6416;52.182;7.650;2023-06-14T14:22:17;31.60;25.30
12704;DHT22;6416;52.182;7.650;2023-06-14T14:24:42;31.50;25.40
12704;DHT22;6416;52.182;7.650;2023-06-14T14:27:08;31.50;25.60
12704;DHT22;6416;52.182;7.650;2023-06-14T14:29:33;31.40;25.70
12704;DHT22;6416;52.182;7.650;2023-06-14T14:31:59;31.40;25.70
12704;DHT22;6416;52.182;7.650;2023-06-14T14:34:24;31.40;25.90
12704;DHT22;6416;52.182;7.650;2023-06-14T14:36:50;31.40;25.90
12704;DHT22;6416;52.182;7.650;2023-06-14T14:39:15;31.40;25.90
12704;DHT22;6416;52.182;7.650;2023-06-14T14:41:41;31.30;25.90
12704;DHT22;6416;52.182;7.650;2023-06-14T14:44:06;31.20;25.80
12704;DHT22;6416;52.182;7.650;2023-06-14T14:46:32;31.20;26.00
12704;DHT22;6416;52.182;7.650;2023-06-14T14:48:59;31.10;26.30
12704;DHT22;6416;52.182;7.650;2023-06-14T14:51:24;31.10;26.60
12704;DHT22;6416;52.182;7.650;2023-06-14T14:53:50;31.10;26.60
12704;DHT22;6416;52.182;7.650;2023-06-14T14:56:15;31.10;26.80
12704;DHT22;6416;52.182;7.650;2023-06-14T14:58:41;31.00;26.80
12704;DHT22;6416;52.182;7.650;2023-06-14T15:01:06;31.00;26.90
12704;DHT22;6416;52.182;7.650;2023-06-14T15:03:32;30.90;26.90
12704;DHT22;6416;52.182;7.650;2023-06-14T15:05:57;30.90;27.00
12704;DHT22;6416;52.182;7.650;2023-06-14T15:08:23;30.90;27.10
12704;DHT22;6416;52.182;7.650;2023-06-14T15:10:48;30.90;27.20
12704;DHT22;6416;52.182;7.650;2023-06-14T15:13:14;30.80;27.20
12704;DHT22;6416;52.182;7.650;2023-06-14T15:15:39;30.80;27.20
12704;DHT22;6416;52.182;7.650;2023-06-14T15:18:05;30.80;27.20
12704;DHT22;6416;52.182;7.650;2023-06-14T15:20:31;30.70;27.10
12704;DHT22;6416;52.182;7.650;2023-06-14T15:22:56;30.70;27.20
12704;DHT22;6416;52.182;7.650;2023-06-14T15:25:22;30.60;27.30
12704;DHT22;6416;52.182;7.650;2023-06-14T15:27:47;30.50;27.10
12704;DHT22;6416;52.182;7.650;2023-06-14T15:30:13;30.40;27.10
12704;DHT22;6416;52.182;7.650;2023-06-14T15:32:38;30.30;27.10
12704;DHT22;6416;52.182;7.650;2023-06-14T15:35:04;30.20;27.10
12704;DHT22;6416;52.182;7.650;2023-06-14T15:37:29;30.10;27.10
12704;DHT22;6416;52.182;7.650;2023-06-14T15:39:55;30.10;27.20
12704;DHT22;6416;52.182;7.650;2023-06-14T15:42:20;30.00;27.20
12704;DHT22;6416;52.182;7.650;2023-06-14T15:44:46;30.00;27.40
12704;DHT22;6416;52.182;7.650;2023-06-14T15:47:11;29.90;27.40
12704;DHT22;6416;52.182;7.650;2023-06-14T15:49:37;29.90;27.50
12704;DHT22;6416;52.182;7.650;2023-06-14T15:52:03;29.80;27.50
12704;DHT22;6416;52.182;7.650;2023-06-14T15:54:28;29.80;27.60